sensor_id;sensor_type;location;lat;lon;timestamp;temperature;humidity
774;DHT22;370;48.810;9.150;2023-04-25T00:00:00;9.50;4.90
774;DHT22;370;48.810;9.150;2023-04-25T00:02:32;9.50;4.70
774;DHT22;370;48.810;9.150;2023-04-25T00:05:00;9.60;3.90
774;DHT22;370;48.810;9.150;2023-04-25T00:07:27;9.60;5.50
774;DHT22;370;48.810;9.150;2023-04-25T00:09:54;9.60;4.40
774;DHT22;370;48.810;9.150;2023-04-25T00:12:22;9.60;3.00
774;DHT22;370;48.810;9.150;2023-04-25T00:14:49;9.70;3.50
774;DHT22;370;48.810;9.150;2023-04-25T00:17:16;9.60;2.10
774;DHT22;370;48.810;9.150;2023-04-25T00:19:44;9.60;2.10
774;DHT22;370;48.810;9.150;2023-04-25T00:22:14;9.60;2.30
774;DHT22;370;48.810;9.150;2023-04-25T00:24:41;9.60;2.50
774;DHT22;370;48.810;9.150;2023-04-25T00:27:07;9.70;2.20
774;DHT22;370;48.810;9.150;2023-04-25T00:29:35;9.60;2.60
774;DHT22;370;48.810;9.150;2023-04-25T00:32:02;9.60;2.50
774;DHT22;370;48.810;9.150;2023-04-25T00:34:29;9.60;3.80
774;DHT22;370;48.810;9.150;2023-04-25T00:36:56;9.60;3.40
774;DHT22;370;48.810;9.150;2023-04-25T00:39:23;9.70;2.60
774;DHT22;370;48.810;9.150;2023-04-25T00:41:50;9.70;3.60
774;DHT22;370;48.810;9.150;2023-04-25T00:44:19;9.70;3.50
774;DHT22;370;48.810;9.150;2023-04-25T00:46:48;9.70;3.40
774;DHT22;370;48.810;9.150;2023-04-25T00:49:15;9.70;4.00
774;DHT22;370;48.810;9.150;2023-04-25T00:51:43;9.80;2.90
774;DHT22;370;48.810;9.150;2023-04-25T00:54:10;9.80;2.80
774;DHT22;370;48.810;9.150;2023-04-25T00:56:38;9.70;3.20
774;DHT22;370;48.810;9.150;2023-04-25T00:59:05;9.70;3.40
774;DHT22;370;48.810;9.150;2023-04-25T01:01:32;9.70;3.50
774;DHT22;370;48.810;9.150;2023-04-25T01:04:01;9.70;3.20
774;DHT22;370;48.810;9.150;2023-04-25T01:07:01;9.60;3.10
774;DHT22;370;48.810;9.150;2023-04-25T01:09:30;9.50;3.80
774;DHT22;370;48.810;9.150;2023-04-25T01:11:57;9.50;4.50
774;DHT22;370;48.810;9.150;2023-04-25T01:14:24;9.50;4.60
774;DHT22;370;48.810;9.150;2023-04-25T01:16:51;9.50;4.50
774;DHT22;370;48.810;9.150;2023-04-25T01:19:20;9.60;4.80
774;DHT22;370;48.810;9.150;2023-04-25T01:21:48;9.60;5.50
774;DHT22;370;48.810;9.150;2023-04-25T01:24:15;9.60;5.50
774;DHT22;370;48.810;9.150;2023-04-25T01:26:42;9.60;3.90
774;DHT22;370;48.810;9.150;2023-04-25T01:29:15;9.60;4.20
774;DHT22;370;48.810;9.150;2023-04-25T01:31:42;9.50;4.30
774;DHT22;370;48.810;9.150;2023-04-25T01:34:09;9.30;5.30
774;DHT22;370;48.810;9.150;2023-04-25T01:36:35;9.30;5.30
774;DHT22;370;48.810;9.150;2023-04-25T01:39:03;9.30;6.00
774;DHT22;370;48.810;9.150;2023-04-25T01:41:30;9.30;5.30
774;DHT22;370;48.810;9.150;2023-04-25T01:43:57;9.30;5.30
774;DHT22;370;48.810;9.150;2023-04-25T01:46:24;9.30;6.00
774;DHT22;370;48.810;9.150;2023-04-25T01:48:51;9.30;5.30
774;DHT22;370;48.810;9.150;2023-04-25T01:51:17;9.40;5.40
774;DHT22;370;48.810;9.150;2023-04-25T01:53:44;9.30;5.10
774;DHT22;370;48.810;9.150;2023-04-25T01:56:12;9.40;4.80
774;DHT22;370;48.810;9.150;2023-04-25T01:58:39;9.40;4.40
774;DHT22;370;48.810;9.150;2023-04-25T02:01:06;9.50;4.60
774;DHT22;370;48.810;9.150;2023-04-25T02:03:34;9.50;4.50
774;DHT22;370;48.810;9.150;2023-04-25T02:06:00;9.50;5.40
774;DHT22;370;48.810;9.150;2023-04-25T02:08:27;9.50;5.50
774;DHT22;370;48.810;9.150;2023-04-25T02:10:54;9.60;4.70
774;DHT22;370;48.810;9.150;2023-04-25T02:13:22;9.60;5.00
774;DHT22;370;48.810;9.150;2023-04-25T02:15:48;9.60;5.50
774;DHT22;370;48.810;9.150;2023-04-25T02:18:15;9.60;5.50
774;DHT22;370;48.810;9.150;2023-04-25T02:20:43;9.60;5.50
774;DHT22;370;48.810;9.150;2023-04-25T02:23:09;9.50;5.50
774;DHT22;370;48.810;9.150;2023-04-25T02:25:36;9.50;5.40
774;DHT22;370;48.810;9.150;2023-04-25T02:28:03;9.40;5.40
774;DHT22;370;48.810;9.150;2023-04-25T02:30:31;9.30;5.30
774;DHT22;370;48.810;9.150;2023-04-25T02:32:58;9.30;5.30
774;DHT22;370;48.810;9.150;2023-04-25T02:35:25;9.20;5.20
774;DHT22;370;48.810;9.150;2023-04-25T02:37:52;9.20;5.90
774;DHT22;370;48.810;9.150;2023-04-25T02:40:19;9.20;5.60
774;DHT22;370;48.810;9.150;2023-04-25T02:42:45;9.20;6.30
774;DHT22;370;48.810;9.150;2023-04-25T02:45:12;9.30;6.50
774;DHT22;370;48.810;9.150;2023-04-25T02:47:40;9.30;6.50
774;DHT22;370;48.810;9.150;2023-04-25T02:50:08;9.30;6.20
774;DHT22;370;48.810;9.150;2023-04-25T02:52:34;9.20;5.70
774;DHT22;370;48.810;9.150;2023-04-25T02:55:01;9.20;6.90
774;DHT22;370;48.810;9.150;2023-04-25T02:57:28;9.30;7.50
774;DHT22;370;48.810;9.150;2023-04-25T02:59:54;9.30;8.00
774;DHT22;370;48.810;9.150;2023-04-25T03:02:21;9.30;7.20
774;DHT22;370;48.810;9.150;2023-04-25T03:04:49;9.40;6.50
774;DHT22;370;48.810;9.150;2023-04-25T03:07:16;9.40;6.70
774;DHT22;370;48.810;9.150;2023-04-25T03:09:42;9.40;6.70
774;DHT22;370;48.810;9.150;2023-04-25T03:12:09;9.40;6.50
774;DHT22;370;48.810;9.150;2023-04-25T03:14:36;9.40;5.70
774;DHT22;370;48.810;9.150;2023-04-25T03:17:02;9.30;6.10
774;DHT22;370;48.810;9.150;2023-04-25T03:19:29;9.30;7.00
774;DHT22;370;48.810;9.150;2023-04-25T03:21:57;9.40;7.00
774;DHT22;370;48.810;9.150;2023-04-25T03:24:24;9.30;6.20
774;DHT22;370;48.810;9.150;2023-04-25T03:26:51;9.20;5.70
774;DHT22;370;48.810;9.150;2023-04-25T03:29:18;9.20;7.10
774;DHT22;370;48.810;9.150;2023-04-25T03:31:45;9.10;7.50
774;DHT22;370;48.810;9.150;2023-04-25T03:34:11;9.20;7.80
774;DHT22;370;48.810;9.150;2023-04-25T03:36:40;9.20;7.90
774;DHT22;370;48.810;9.150;2023-04-25T03:39:08;9.10;8.30
774;DHT22;370;48.810;9.150;2023-04-25T03:41:34;9.10;8.50
774;DHT22;370;48.810;9.150;2023-04-25T03:44:01;9.20;8.70
774;DHT22;370;48.810;9.150;2023-04-25T03:46:28;9.30;8.40
774;DHT22;370;48.810;9.150;2023-04-25T03:48:54;9.30;7.50
774;DHT22;370;48.810;9.150;2023-04-25T03:51:21;9.30;7.00
774;DHT22;370;48.810;9.150;2023-04-25T03:53:49;9.20;8.00
774;DHT22;370;48.810;9.150;2023-04-25T03:56:17;9.20;7.80
774;DHT22;370;48.810;9.150;2023-04-25T03:58:44;9.20;7.20
774;DHT22;370;48.810;9.150;2023-04-25T04:01:10;9.30;7.10
774;DHT22;370;48.810;9.150;2023-04-25T04:03:37;9.20;6.50
774;DHT22;370;48.810;9.150;2023-04-25T04:06:04;9.20;6.50
774;DHT22;370;48.810;9.150;2023-04-25T04:08:31;9.20;6.50
774;DHT22;370;48.810;9.150;2023-04-25T04:10:58;9.10;7.10
774;DHT22;370;48.810;9.150;2023-04-25T04:13:27;9.10;8.80
774;DHT22;370;48.810;9.150;2023-04-25T04:15:54;9.10;7.80
774;DHT22;370;48.810;9.150;2023-04-25T04:18:21;9.00;7.50
774;DHT22;370;48.810;9.150;2023-04-25T04:20:48;9.00;7.50
774;DHT22;370;48.810;9.150;2023-04-25T04:23:15;9.00;8.50
774;DHT22;370;48.810;9.150;2023-04-25T04:25:41;8.90;8.50
774;DHT22;370;48.810;9.150;2023-04-25T04:28:08;8.90;8.90
774;DHT22;370;48.810;9.150;2023-04-25T04:30:37;8.90;8.60
774;DHT22;370;48.810;9.150;2023-04-25T04:33:04;8.90;10.00
774;DHT22;370;48.810;9.150;2023-04-25T04:35:31;8.80;10.30
774;DHT22;370;48.810;9.150;2023-04-25T04:37:58;8.90;10.40
774;DHT22;370;48.810;9.150;2023-04-25T04:40:24;8.90;11.10
774;DHT22;370;48.810;9.150;2023-04-25T04:42:51;9.10;10.10
774;DHT22;370;48.810;9.150;2023-04-25T04:45:21;9.20;10.10
774;DHT22;370;48.810;9.150;2023-04-25T04:47:49;9.30;9.70
774;DHT22;370;48.810;9.150;2023-04-25T04:50:16;9.40;9.40
774;DHT22;370;48.810;9.150;2023-04-25T04:52:43;9.40;8.60
774;DHT22;370;48.810;9.150;2023-04-25T04:55:10;9.50;7.70
774;DHT22;370;48.810;9.150;2023-04-25T04:57:37;9.50;8.00
774;DHT22;370;48.810;9.150;2023-04-25T05:00:05;9.60;7.70
774;DHT22;370;48.810;9.150;2023-04-25T05:02:36;9.60;7.30
774;DHT22;370;48.810;9.150;2023-04-25T05:05:05;9.50;7.60
774;DHT22;370;48.810;9.150;2023-04-25T05:07:31;9.60;7.70
774;DHT22;370;48.810;9.150;2023-04-25T05:09:58;9.60;8.20
774;DHT22;370;48.810;9.150;2023-04-25T05:12:25;9.70;7.30
774;DHT22;370;48.810;9.150;2023-04-25T05:14:52;9.70;7.20
774;DHT22;370;48.810;9.150;2023-04-25T05:17:18;9.80;7.20
774;DHT22;370;48.810;9.150;2023-04-25T05:19:45;9.90;6.70
774;DHT22;370;48.810;9.150;2023-04-25T05:22:13;10.00;5.00
774;DHT22;370;48.810;9.150;2023-04-25T05:24:40;10.00;5.00
774;DHT22;370;48.810;9.150;2023-04-25T05:27:07;10.10;4.20
774;DHT22;370;48.810;9.150;2023-04-25T05:29:33;10.20;2.90
774;DHT22;370;48.810;9.150;2023-04-25T05:32:00;10.10;3.90
774;DHT22;370;48.810;9.150;2023-04-25T05:34:27;10.20;4.40
774;DHT22;370;48.810;9.150;2023-04-25T05:36:54;10.20;5.10
774;DHT22;370;48.810;9.150;2023-04-25T05:39:22;10.20;13.40
774;DHT22;370;48.810;9.150;2023-04-25T05:41:49;10.30;11.30
774;DHT22;370;48.810;9.150;2023-04-25T05:44:15;10.20;7.40
774;DHT22;370;48.810;9.150;2023-04-25T05:46:42;10.10;7.60
774;DHT22;370;48.810;9.150;2023-04-25T05:49:09;9.80;8.80
774;DHT22;370;48.810;9.150;2023-04-25T05:51:35;9.70;9.90
774;DHT22;370;48.810;9.150;2023-04-25T05:54:02;9.60;12.10
774;DHT22;370;48.810;9.150;2023-04-25T05:56:30;9.60;9.30
774;DHT22;370;48.810;9.150;2023-04-25T05:58:57;9.70;8.70
774;DHT22;370;48.810;9.150;2023-04-25T06:01:24;9.70;8.70
774;DHT22;370;48.810;9.150;2023-04-25T06:03:50;9.70;10.90
774;DHT22;370;48.810;9.150;2023-04-25T06:06:18;9.80;8.70
774;DHT22;370;48.810;9.150;2023-04-25T06:08:44;10.00;5.00
774;DHT22;370;48.810;9.150;2023-04-25T06:11:11;10.10;5.10
774;DHT22;370;48.810;9.150;2023-04-25T06:13:39;10.20;4.40
774;DHT22;370;48.810;9.150;2023-04-25T06:16:06;10.30;2.30
774;DHT22;370;48.810;9.150;2023-04-25T06:18:33;10.40;3.30
774;DHT22;370;48.810;9.150;2023-04-25T06:21:00;10.40;2.30
774;DHT22;370;48.810;9.150;2023-04-25T06:23:26;10.60;1.30
774;DHT22;370;48.810;9.150;2023-04-25T06:25:53;10.70;2.30
774;DHT22;370;48.810;9.150;2023-04-25T06:28:20;10.80;1.30
774;DHT22;370;48.810;9.150;2023-04-25T06:30:48;11.00;1.40
774;DHT22;370;48.810;9.150;2023-04-25T06:33:15;11.10;1.00
774;DHT22;370;48.810;9.150;2023-04-25T06:35:42;11.30;1.00
774;DHT22;370;48.810;9.150;2023-04-25T06:38:09;11.50;1.00
774;DHT22;370;48.810;9.150;2023-04-25T06:40:35;11.50;1.00
774;DHT22;370;48.810;9.150;2023-04-25T06:43:02;11.70;1.00
774;DHT22;370;48.810;9.150;2023-04-25T06:45:28;11.90;1.00
774;DHT22;370;48.810;9.150;2023-04-25T06:47:57;12.00;1.00
774;DHT22;370;48.810;9.150;2023-04-25T06:50:23;12.10;1.00
774;DHT22;370;48.810;9.150;2023-04-25T06:52:50;12.10;1.00
774;DHT22;370;48.810;9.150;2023-04-25T06:55:17;12.00;1.00
774;DHT22;370;48.810;9.150;2023-04-25T06:57:44;12.00;1.00
774;DHT22;370;48.810;9.150;2023-04-25T07:00:11;12.00;1.00
774;DHT22;370;48.810;9.150;2023-04-25T07:02:38;12.00;1.00
774;DHT22;370;48.810;9.150;2023-04-25T07:05:09;11.80;1.00
774;DHT22;370;48.810;9.150;2023-04-25T07:07:36;11.60;1.00
774;DHT22;370;48.810;9.150;2023-04-25T07:10:03;11.50;1.00
774;DHT22;370;48.810;9.150;2023-04-25T07:12:30;11.30;1.00
774;DHT22;370;48.810;9.150;2023-04-25T07:14:57;11.20;1.00
774;DHT22;370;48.810;9.150;2023-04-25T07:17:24;11.20;1.00
774;DHT22;370;48.810;9.150;2023-04-25T07:19:50;11.30;1.00
774;DHT22;370;48.810;9.150;2023-04-25T07:22:19;11.30;1.00
774;DHT22;370;48.810;9.150;2023-04-25T07:24:45;11.30;1.00
774;DHT22;370;48.810;9.150;2023-04-25T07:27:14;11.40;1.00
774;DHT22;370;48.810;9.150;2023-04-25T07:29:40;11.40;1.00
774;DHT22;370;48.810;9.150;2023-04-25T07:32:07;11.30;1.00
774;DHT22;370;48.810;9.150;2023-04-25T07:34:35;11.20;1.00
774;DHT22;370;48.810;9.150;2023-04-25T07:37:04;11.20;1.00
774;DHT22;370;48.810;9.150;2023-04-25T07:39:32;11.20;1.00
774;DHT22;370;48.810;9.150;2023-04-25T07:41:59;11.20;1.00
774;DHT22;370;48.810;9.150;2023-04-25T07:44:27;11.10;1.00
774;DHT22;370;48.810;9.150;2023-04-25T07:46:55;10.90;1.00
774;DHT22;370;48.810;9.150;2023-04-25T07:49:22;10.70;1.00
774;DHT22;370;48.810;9.150;2023-04-25T07:51:49;10.50;2.80
774;DHT22;370;48.810;9.150;2023-04-25T07:54:16;10.30;5.20
774;DHT22;370;48.810;9.150;2023-04-25T07:56:44;10.30;6.10
774;DHT22;370;48.810;9.150;2023-04-25T07:59:11;10.20;7.60
774;DHT22;370;48.810;9.150;2023-04-25T08:01:38;10.20;9.50
774;DHT22;370;48.810;9.150;2023-04-25T08:04:04;10.20;9.50
774;DHT22;370;48.810;9.150;2023-04-25T08:06:31;10.30;9.10
774;DHT22;370;48.810;9.150;2023-04-25T08:08:58;10.20;10.70
774;DHT22;370;48.810;9.150;2023-04-25T08:11:25;10.20;10.80
774;DHT22;370;48.810;9.150;2023-04-25T08:13:53;10.20;12.30
774;DHT22;370;48.810;9.150;2023-04-25T08:16:20;10.30;11.90
774;DHT22;370;48.810;9.150;2023-04-25T08:18:47;10.20;11.80
774;DHT22;370;48.810;9.150;2023-04-25T08:21:13;10.10;15.00
774;DHT22;370;48.810;9.150;2023-04-25T08:23:40;10.20;14.80
774;DHT22;370;48.810;9.150;2023-04-25T08:26:07;10.30;14.00
774;DHT22;370;48.810;9.150;2023-04-25T08:28:34;10.20;15.30
774;DHT22;370;48.810;9.150;2023-04-25T08:31:02;10.20;13.90
774;DHT22;370;48.810;9.150;2023-04-25T08:33:29;10.20;15.60
774;DHT22;370;48.810;9.150;2023-04-25T08:35:57;10.10;15.90
774;DHT22;370;48.810;9.150;2023-04-25T08:38:24;10.10;16.90
774;DHT22;370;48.810;9.150;2023-04-25T08:40:51;10.10;19.40
774;DHT22;370;48.810;9.150;2023-04-25T08:43:19;10.30;17.90
774;DHT22;370;48.810;9.150;2023-04-25T08:45:46;10.40;15.40
774;DHT22;370;48.810;9.150;2023-04-25T08:48:16;10.40;18.10
774;DHT22;370;48.810;9.150;2023-04-25T08:50:48;10.50;15.30
774;DHT22;370;48.810;9.150;2023-04-25T08:53:16;10.30;14.00
774;DHT22;370;48.810;9.150;2023-04-25T08:55:45;10.10;16.10
774;DHT22;370;48.810;9.150;2023-04-25T08:58:12;10.10;13.80
774;DHT22;370;48.810;9.150;2023-04-25T09:00:39;9.90;13.50
774;DHT22;370;48.810;9.150;2023-04-25T09:03:06;9.90;14.50
774;DHT22;370;48.810;9.150;2023-04-25T09:05:35;9.90;15.10
774;DHT22;370;48.810;9.150;2023-04-25T09:08:02;10.00;13.80
774;DHT22;370;48.810;9.150;2023-04-25T09:10:29;10.10;15.20
774;DHT22;370;48.810;9.150;2023-04-25T09:13:03;10.30;14.00
774;DHT22;370;48.810;9.150;2023-04-25T09:15:31;10.40;14.10
774;DHT22;370;48.810;9.150;2023-04-25T09:17:58;10.50;14.80
774;DHT22;370;48.810;9.150;2023-04-25T09:20:26;10.60;17.10
774;DHT22;370;48.810;9.150;2023-04-25T09:23:03;10.70;13.90
774;DHT22;370;48.810;9.150;2023-04-25T09:25:34;10.70;14.30
774;DHT22;370;48.810;9.150;2023-04-25T09:28:04;10.70;15.00
774;DHT22;370;48.810;9.150;2023-04-25T09:30:33;10.70;12.70
774;DHT22;370;48.810;9.150;2023-04-25T09:33:04;10.80;13.90
774;DHT22;370;48.810;9.150;2023-04-25T09:35:36;10.80;14.30
774;DHT22;370;48.810;9.150;2023-04-25T09:38:09;10.80;14.00
774;DHT22;370;48.810;9.150;2023-04-25T09:40:39;11.00;14.00
774;DHT22;370;48.810;9.150;2023-04-25T09:43:09;10.90;14.40
774;DHT22;370;48.810;9.150;2023-04-25T09:45:41;11.00;14.50
774;DHT22;370;48.810;9.150;2023-04-25T09:48:11;11.00;14.50
774;DHT22;370;48.810;9.150;2023-04-25T09:50:38;11.00;13.40
774;DHT22;370;48.810;9.150;2023-04-25T09:53:06;10.90;13.20
774;DHT22;370;48.810;9.150;2023-04-25T09:55:34;10.80;13.80
774;DHT22;370;48.810;9.150;2023-04-25T09:58:04;10.80;14.30
774;DHT22;370;48.810;9.150;2023-04-25T10:00:32;10.80;16.40
774;DHT22;370;48.810;9.150;2023-04-25T10:03:01;10.70;17.10
774;DHT22;370;48.810;9.150;2023-04-25T10:05:30;10.60;18.80
774;DHT22;370;48.810;9.150;2023-04-25T10:07:58;10.50;14.10
774;DHT22;370;48.810;9.150;2023-04-25T10:10:25;10.30;16.40
774;DHT22;370;48.810;9.150;2023-04-25T10:12:54;10.30;18.50
774;DHT22;370;48.810;9.150;2023-04-25T10:15:21;10.10;18.10
774;DHT22;370;48.810;9.150;2023-04-25T10:17:49;10.10;22.30
774;DHT22;370;48.810;9.150;2023-04-25T10:20:16;9.90;22.90
774;DHT22;370;48.810;9.150;2023-04-25T10:22:44;9.80;18.00
774;DHT22;370;48.810;9.150;2023-04-25T10:25:14;9.70;18.00
774;DHT22;370;48.810;9.150;2023-04-25T10:27:41;9.50;18.10
774;DHT22;370;48.810;9.150;2023-04-25T10:30:11;9.30;22.60
774;DHT22;370;48.810;9.150;2023-04-25T10:32:41;9.10;25.10
774;DHT22;370;48.810;9.150;2023-04-25T10:35:13;9.10;27.60
774;DHT22;370;48.810;9.150;2023-04-25T10:37:57;9.10;30.70
774;DHT22;370;48.810;9.150;2023-04-25T10:40:24;8.90;30.50
774;DHT22;370;48.810;9.150;2023-04-25T10:42:52;8.70;21.20
774;DHT22;370;48.810;9.150;2023-04-25T10:45:20;8.50;29.10
774;DHT22;370;48.810;9.150;2023-04-25T10:47:47;8.50;30.20
774;DHT22;370;48.810;9.150;2023-04-25T10:50:14;8.60;28.50
774;DHT22;370;48.810;9.150;2023-04-25T10:52:41;8.70;29.10
774;DHT22;370;48.810;9.150;2023-04-25T10:55:08;8.80;30.20
774;DHT22;370;48.810;9.150;2023-04-25T10:57:37;8.70;29.00
774;DHT22;370;48.810;9.150;2023-04-25T11:00:10;8.80;32.00
774;DHT22;370;48.810;9.150;2023-04-25T11:02:40;9.00;31.70
774;DHT22;370;48.810;9.150;2023-04-25T11:05:08;9.10;29.90
774;DHT22;370;48.810;9.150;2023-04-25T11:07:39;9.20;30.70
774;DHT22;370;48.810;9.150;2023-04-25T11:10:09;9.40;32.20
774;DHT22;370;48.810;9.150;2023-04-25T11:12:36;9.60;29.90
774;DHT22;370;48.810;9.150;2023-04-25T11:15:05;9.70;22.80
774;DHT22;370;48.810;9.150;2023-04-25T11:17:33;9.70;20.10
774;DHT22;370;48.810;9.150;2023-04-25T11:20:01;9.70;21.70
774;DHT22;370;48.810;9.150;2023-04-25T11:22:32;9.60;24.30
774;DHT22;370;48.810;9.150;2023-04-25T11:25:00;9.60;19.10
774;DHT22;370;48.810;9.150;2023-04-25T11:27:30;9.60;23.00
774;DHT22;370;48.810;9.150;2023-04-25T11:29:57;9.70;23.00
774;DHT22;370;48.810;9.150;2023-04-25T11:32:24;9.80;24.10
774;DHT22;370;48.810;9.150;2023-04-25T11:34:52;9.90;24.30
774;DHT22;370;48.810;9.150;2023-04-25T11:37:21;10.00;20.20
774;DHT22;370;48.810;9.150;2023-04-25T11:39:47;9.90;19.40
774;DHT22;370;48.810;9.150;2023-04-25T11:42:14;9.90;19.40
774;DHT22;370;48.810;9.150;2023-04-25T11:44:41;10.00;17.10
774;DHT22;370;48.810;9.150;2023-04-25T11:47:08;10.00;16.10
774;DHT22;370;48.810;9.150;2023-04-25T11:49:35;10.00;17.30
774;DHT22;370;48.810;9.150;2023-04-25T11:52:02;9.90;16.10
774;DHT22;370;48.810;9.150;2023-04-25T11:54:30;9.90;17.50
774;DHT22;370;48.810;9.150;2023-04-25T11:56:57;9.80;16.30
774;DHT22;370;48.810;9.150;2023-04-25T11:59:25;9.80;18.10
774;DHT22;370;48.810;9.150;2023-04-25T12:01:53;9.90;17.40
774;DHT22;370;48.810;9.150;2023-04-25T12:04:21;10.00;19.40
774;DHT22;370;48.810;9.150;2023-04-25T12:06:50;10.30;19.40
774;DHT22;370;48.810;9.150;2023-04-25T12:09:19;10.30;17.80
774;DHT22;370;48.810;9.150;2023-04-25T12:11:52;10.40;17.70
774;DHT22;370;48.810;9.150;2023-04-25T12:14:24;10.60;20.30
774;DHT22;370;48.810;9.150;2023-04-25T12:16:54;10.70;18.50
774;DHT22;370;48.810;9.150;2023-04-25T12:19:23;10.90;17.10
774;DHT22;370;48.810;9.150;2023-04-25T12:21:50;10.90;18.00
774;DHT22;370;48.810;9.150;2023-04-25T12:24:21;10.90;18.10
774;DHT22;370;48.810;9.150;2023-04-25T12:26:52;10.80;16.40
774;DHT22;370;48.810;9.150;2023-04-25T12:29:21;10.60;18.60
774;DHT22;370;48.810;9.150;2023-04-25T12:31:48;10.50;20.60
774;DHT22;370;48.810;9.150;2023-04-25T12:34:15;10.60;24.30
774;DHT22;370;48.810;9.150;2023-04-25T12:36:42;10.70;23.10
774;DHT22;370;48.810;9.150;2023-04-25T12:39:14;10.60;20.70
774;DHT22;370;48.810;9.150;2023-04-25T12:41:41;11.00;27.80
774;DHT22;370;48.810;9.150;2023-04-25T12:44:09;11.50;16.50
774;DHT22;370;48.810;9.150;2023-04-25T12:46:36;12.00;18.90
774;DHT22;370;48.810;9.150;2023-04-25T12:49:03;13.20;12.60
774;DHT22;370;48.810;9.150;2023-04-25T12:51:31;14.00;7.80
774;DHT22;370;48.810;9.150;2023-04-25T12:53:58;13.80;4.00
774;DHT22;370;48.810;9.150;2023-04-25T12:56:25;14.00;1.00
774;DHT22;370;48.810;9.150;2023-04-25T12:58:52;14.40;1.00
774;DHT22;370;48.810;9.150;2023-04-25T13:01:21;14.50;1.00
774;DHT22;370;48.810;9.150;2023-04-25T13:03:47;14.70;1.00
774;DHT22;370;48.810;9.150;2023-04-25T13:06:14;15.20;1.00
774;DHT22;370;48.810;9.150;2023-04-25T13:08:41;15.50;1.00
774;DHT22;370;48.810;9.150;2023-04-25T13:11:08;15.30;1.00
774;DHT22;370;48.810;9.150;2023-04-25T13:13:35;15.10;1.00
774;DHT22;370;48.810;9.150;2023-04-25T13:16:02;14.80;1.00
774;DHT22;370;48.810;9.150;2023-04-25T13:18:30;14.70;1.00
774;DHT22;370;48.810;9.150;2023-04-25T13:20:58;15.40;1.00
774;DHT22;370;48.810;9.150;2023-04-25T13:23:26;16.50;1.00
774;DHT22;370;48.810;9.150;2023-04-25T13:25:54;16.90;1.00
774;DHT22;370;48.810;9.150;2023-04-25T13:28:23;17.30;1.00
774;DHT22;370;48.810;9.150;2023-04-25T13:30:49;18.00;1.00
774;DHT22;370;48.810;9.150;2023-04-25T13:33:17;18.20;1.00
774;DHT22;370;48.810;9.150;2023-04-25T13:35:45;17.60;1.00
774;DHT22;370;48.810;9.150;2023-04-25T13:38:19;16.90;1.00
774;DHT22;370;48.810;9.150;2023-04-25T13:40:46;16.20;1.00
774;DHT22;370;48.810;9.150;2023-04-25T13:43:12;15.50;1.00
774;DHT22;370;48.810;9.150;2023-04-25T13:45:39;15.00;1.00
774;DHT22;370;48.810;9.150;2023-04-25T13:48:06;14.70;1.00
774;DHT22;370;48.810;9.150;2023-04-25T13:50:32;14.50;1.00
774;DHT22;370;48.810;9.150;2023-04-25T13:53:00;14.60;1.00
774;DHT22;370;48.810;9.150;2023-04-25T13:55:27;15.60;1.00
774;DHT22;370;48.810;9.150;2023-04-25T13:57:54;16.30;1.00
774;DHT22;370;48.810;9.150;2023-04-25T14:00:21;16.50;1.00
774;DHT22;370;48.810;9.150;2023-04-25T14:02:47;16.10;1.00
774;DHT22;370;48.810;9.150;2023-04-25T14:05:14;15.80;1.00
774;DHT22;370;48.810;9.150;2023-04-25T14:07:41;15.40;1.00
774;DHT22;370;48.810;9.150;2023-04-25T14:10:10;15.40;1.00
774;DHT22;370;48.810;9.150;2023-04-25T14:12:37;16.10;1.00
774;DHT22;370;48.810;9.150;2023-04-25T14:15:04;17.00;1.00
774;DHT22;370;48.810;9.150;2023-04-25T14:17:31;17.60;1.00
774;DHT22;370;48.810;9.150;2023-04-25T14:19:58;20.00;1.00
774;DHT22;370;48.810;9.150;2023-04-25T14:22:25;21.90;1.00
774;DHT22;370;48.810;9.150;2023-04-25T14:24:52;22.60;1.00
774;DHT22;370;48.810;9.150;2023-04-25T14:27:20;22.80;1.00
774;DHT22;370;48.810;9.150;2023-04-25T14:29:46;23.30;1.00
774;DHT22;370;48.810;9.150;2023-04-25T14:32:13;23.00;1.00
774;DHT22;370;48.810;9.150;2023-04-25T14:34:40;21.60;1.00
774;DHT22;370;48.810;9.150;2023-04-25T14:37:07;20.80;1.00
774;DHT22;370;48.810;9.150;2023-04-25T14:39:34;20.20;1.00
774;DHT22;370;48.810;9.150;2023-04-25T14:42:02;19.60;1.00
774;DHT22;370;48.810;9.150;2023-04-25T14:44:30;19.30;1.00
774;DHT22;370;48.810;9.150;2023-04-25T14:46:56;18.70;1.00
774;DHT22;370;48.810;9.150;2023-04-25T14:49:23;17.80;1.00
774;DHT22;370;48.810;9.150;2023-04-25T14:51:50;16.90;1.00
774;DHT22;370;48.810;9.150;2023-04-25T14:54:17;16.10;1.00
774;DHT22;370;48.810;9.150;2023-04-25T14:56:43;15.50;1.00
774;DHT22;370;48.810;9.150;2023-04-25T14:59:10;15.10;1.00
774;DHT22;370;48.810;9.150;2023-04-25T15:01:38;14.80;1.00
774;DHT22;370;48.810;9.150;2023-04-25T15:04:05;14.70;1.00
774;DHT22;370;48.810;9.150;2023-04-25T15:06:33;15.00;1.00
774;DHT22;370;48.810;9.150;2023-04-25T15:08:59;17.00;1.00
774;DHT22;370;48.810;9.150;2023-04-25T15:11:26;18.60;1.00
774;DHT22;370;48.810;9.150;2023-04-25T15:13:53;18.10;1.00
774;DHT22;370;48.810;9.150;2023-04-25T15:16:20;17.10;1.00
774;DHT22;370;48.810;9.150;2023-04-25T15:18:48;16.30;1.00
774;DHT22;370;48.810;9.150;2023-04-25T15:21:14;16.70;1.00
774;DHT22;370;48.810;9.150;2023-04-25T15:23:41;18.10;1.00
774;DHT22;370;48.810;9.150;2023-04-25T15:26:08;19.00;1.00
774;DHT22;370;48.810;9.150;2023-04-25T15:28:36;19.90;1.00
774;DHT22;370;48.810;9.150;2023-04-25T15:31:02;19.60;1.00
774;DHT22;370;48.810;9.150;2023-04-25T15:33:29;18.30;1.00
774;DHT22;370;48.810;9.150;2023-04-25T15:35:57;17.00;1.00
774;DHT22;370;48.810;9.150;2023-04-25T15:38:24;16.20;1.00
774;DHT22;370;48.810;9.150;2023-04-25T15:40:51;15.50;1.00
774;DHT22;370;48.810;9.150;2023-04-25T15:43:18;15.10;1.00
774;DHT22;370;48.810;9.150;2023-04-25T15:45:45;14.80;1.00
774;DHT22;370;48.810;9.150;2023-04-25T15:48:12;14.70;1.00
774;DHT22;370;48.810;9.150;2023-04-25T15:50:38;14.40;1.00
774;DHT22;370;48.810;9.150;2023-04-25T15:53:07;14.00;1.00
774;DHT22;370;48.810;9.150;2023-04-25T15:55:33;14.10;1.00
774;DHT22;370;48.810;9.150;2023-04-25T15:58:01;14.20;1.00
774;DHT22;370;48.810;9.150;2023-04-25T16:00:28;14.40;1.00
774;DHT22;370;48.810;9.150;2023-04-25T16:02:55;14.80;1.00
774;DHT22;370;48.810;9.150;2023-04-25T16:05:22;14.70;1.00
774;DHT22;370;48.810;9.150;2023-04-25T16:07:49;14.30;1.00
774;DHT22;370;48.810;9.150;2023-04-25T16:10:19;13.90;1.00
774;DHT22;370;48.810;9.150;2023-04-25T16:12:46;13.70;1.00
774;DHT22;370;48.810;9.150;2023-04-25T16:15:14;13.60;1.00
774;DHT22;370;48.810;9.150;2023-04-25T16:17:41;13.50;1.00
774;DHT22;370;48.810;9.150;2023-04-25T16:20:09;13.50;1.00
774;DHT22;370;48.810;9.150;2023-04-25T16:22:37;13.20;1.00
774;DHT22;370;48.810;9.150;2023-04-25T16:25:05;13.20;1.00
774;DHT22;370;48.810;9.150;2023-04-25T16:27:34;13.40;1.00
774;DHT22;370;48.810;9.150;2023-04-25T16:30:03;13.50;1.00
774;DHT22;370;48.810;9.150;2023-04-25T16:32:30;13.60;1.00
774;DHT22;370;48.810;9.150;2023-04-25T16:34:57;13.50;1.00
774;DHT22;370;48.810;9.150;2023-04-25T16:37:24;13.50;1.00
774;DHT22;370;48.810;9.150;2023-04-25T16:39:51;13.40;1.00
774;DHT22;370;48.810;9.150;2023-04-25T16:42:18;13.20;1.00
774;DHT22;370;48.810;9.150;2023-04-25T16:44:46;13.10;1.00
774;DHT22;370;48.810;9.150;2023-04-25T16:47:13;13.00;1.00
774;DHT22;370;48.810;9.150;2023-04-25T16:49:39;12.90;1.00
774;DHT22;370;48.810;9.150;2023-04-25T16:52:06;12.70;1.00
774;DHT22;370;48.810;9.150;2023-04-25T16:54:33;12.60;1.00